Monday, May 25, 2015, 9:27 PM EDT

KJYO, Leesburg / Godfrey

Location: Leesburg, VA, United States Lat: 39.083
Local Time: 9:27 PM EDT ( 1:27 GMT) Lon: -77.567
Time Zone: US/Eastern Elev: 390 ft

Show me the last for .
Show Decoded

2015-05-25 20:55 METAR KJYO 260055Z AUTO 19011KT 10SM CLR 25/16 A3020 RMK AO2 =
2015-05-25 20:35 METAR KJYO 260035Z AUTO 19011KT 10SM CLR 26/16 A3020 RMK AO2 =
2015-05-25 20:15 METAR KJYO 260015Z AUTO 19012G16KT 10SM CLR 26/16 A3019 RMK AO2 =
2015-05-25 19:55 METAR KJYO 252355Z AUTO 19012G18KT 10SM CLR 27/16 A3020 RMK AO2 =
2015-05-25 19:35 METAR KJYO 252335Z AUTO 19012G17KT 10SM CLR 27/16 A3020 RMK AO2 =
2015-05-25 19:15 METAR KJYO 252315Z AUTO 18015G22KT 10SM CLR 28/16 A3020 RMK AO2 =
2015-05-25 18:55 METAR KJYO 252255Z AUTO 19013G20KT 10SM CLR 28/16 A3019 RMK AO2 =
2015-05-25 18:35 METAR KJYO 252235Z AUTO 19012G22KT 10SM CLR 28/16 A3019 RMK AO2 =
2015-05-25 18:15 METAR KJYO 252215Z AUTO 18016G21KT 10SM CLR 29/16 A3019 RMK AO2 =
2015-05-25 17:55 METAR KJYO 252155Z AUTO 19013G20KT 10SM CLR 29/16 A3019 RMK AO2 =
2015-05-25 17:35 METAR KJYO 252135Z AUTO 20013G19KT 10SM CLR 30/16 A3020 RMK AO2 =
2015-05-25 17:15 METAR KJYO 252115Z AUTO 20012G17KT 10SM CLR 30/16 A3020 RMK AO2 =
2015-05-25 16:55 METAR KJYO 252055Z AUTO 20011G23KT 10SM CLR 30/17 A3020 RMK AO2 =
2015-05-25 16:35 METAR KJYO 252035Z AUTO 20011G19KT 10SM CLR 30/17 A3020 RMK AO2 =
2015-05-25 16:15 METAR KJYO 252015Z AUTO 21012G23KT 10SM SCT055 30/17 A3020 RMK AO2 =
2015-05-25 15:55 METAR KJYO 251955Z AUTO 18019G23KT 10SM SCT055 30/16 A3020 RMK AO2 =
2015-05-25 15:35 METAR KJYO 251935Z AUTO 19014G24KT 10SM SCT055 30/16 A3021 RMK AO2 =
2015-05-25 15:15 METAR KJYO 251915Z AUTO 20011G19KT 170V230 10SM CLR 30/16 A3021 RMK AO2 =
2015-05-25 14:55 METAR KJYO 251855Z AUTO 20017G27KT 10SM CLR 30/16 A3021 RMK AO2 =
2015-05-25 14:15 METAR KJYO 251815Z AUTO 19015G23KT 10SM CLR 30/17 A3022 RMK AO2 =
2015-05-25 13:55 METAR KJYO 251755Z AUTO 20015G24KT 10SM CLR 30/16 A3022 RMK AO2 =
2015-05-25 13:35 METAR KJYO 251735Z AUTO 22014G23KT 10SM CLR 30/16 A3023 RMK AO2 =
2015-05-25 13:15 METAR KJYO 251715Z AUTO 21010G22KT 10SM SCT055 30/16 A3023 RMK AO2 =
2015-05-25 12:55 METAR KJYO 251655Z AUTO 20011G21KT 180V240 10SM CLR 29/17 A3024 RMK AO2 =
2015-05-25 12:35 METAR KJYO 251635Z AUTO 21018G24KT 10SM CLR 28/16 A3024 RMK AO2 =
2015-05-25 12:15 METAR KJYO 251615Z AUTO 19014G18KT 10SM CLR 28/17 A3025 RMK AO2 =
2015-05-25 11:55 METAR KJYO 251555Z AUTO 20011G20KT 10SM CLR 27/17 A3026 RMK AO2 =
2015-05-25 11:35 METAR KJYO 251535Z AUTO 19012G17KT 10SM CLR 27/17 A3026 RMK AO2 =
2015-05-25 11:15 METAR KJYO 251515Z AUTO 21008G14KT 10SM CLR 27/17 A3027 RMK AO2 =
2015-05-25 10:55 METAR KJYO 251455Z AUTO 18012KT 10SM CLR 26/17 A3028 RMK AO2 =
2015-05-25 10:35 METAR KJYO 251435Z AUTO 19011G14KT 10SM CLR 26/17 A3028 RMK AO2 =
2015-05-25 10:15 METAR KJYO 251415Z AUTO 18009KT 10SM CLR 25/16 A3027 RMK AO2 =
2015-05-25 09:55 METAR KJYO 251355Z AUTO 18008KT 10SM CLR 23/16 A3027 RMK AO2 =
2015-05-25 09:35 METAR KJYO 251335Z AUTO 16006KT 10SM CLR 23/16 A3028 RMK AO2 =
2015-05-25 09:15 METAR KJYO 251315Z AUTO 16006KT 10SM CLR 22/16 A3028 RMK AO2 =
2015-05-25 08:55 METAR KJYO 251255Z AUTO 18005KT 10SM CLR 21/16 A3029 RMK AO2 =
2015-05-25 08:35 METAR KJYO 251235Z AUTO 17006KT 10SM CLR 20/16 A3028 RMK AO2 =
2015-05-25 08:15 METAR KJYO 251215Z AUTO 17005KT 10SM CLR 20/16 A3028 RMK AO2 =
2015-05-25 07:55 METAR KJYO 251155Z AUTO 18004KT 10SM CLR 19/16 A3028 RMK AO2 =
2015-05-25 07:35 METAR KJYO 251135Z AUTO 18005KT 10SM CLR 18/16 A3028 RMK AO2 =
2015-05-25 07:15 METAR KJYO 251115Z AUTO 19005KT 10SM CLR 17/15 A3028 RMK AO2 =
2015-05-25 06:55 METAR KJYO 251055Z AUTO 20005KT 10SM CLR 16/15 A3027 RMK AO2 =
2015-05-25 06:35 METAR KJYO 251035Z AUTO 21003KT 10SM CLR 15/15 A3026 RMK AO2 =
2015-05-25 06:15 METAR KJYO 251015Z AUTO 21003KT 10SM CLR 14/13 A3026 RMK AO2 =
2015-05-25 05:55 METAR KJYO 250955Z AUTO 20003KT 10SM CLR 16/14 A3025 RMK AO2 =
2015-05-25 05:35 METAR KJYO 250935Z AUTO 18003KT 10SM CLR 16/15 A3024 RMK AO2 LTG DSNT SW =
2015-05-25 05:15 METAR KJYO 250915Z AUTO 19005KT 10SM CLR 16/15 A3024 RMK AO2 =
2015-05-25 04:55 METAR KJYO 250855Z AUTO 17004KT 10SM CLR 16/15 A3025 RMK AO2 =
2015-05-25 04:35 METAR KJYO 250835Z AUTO 16004KT 10SM CLR 17/15 A3025 RMK AO2 =
2015-05-25 04:15 METAR KJYO 250815Z AUTO 18003KT 10SM CLR 16/15 A3026 RMK AO2 =
2015-05-25 03:55 METAR KJYO 250755Z AUTO 00000KT 10SM CLR 15/14 A3026 RMK AO2 =
2015-05-25 03:35 METAR KJYO 250735Z AUTO 00000KT 10SM CLR 16/14 A3025 RMK AO2 =
2015-05-25 02:55 METAR KJYO 250655Z AUTO 00000KT 10SM CLR 17/15 A3025 RMK AO2 =
2015-05-25 02:35 METAR KJYO 250635Z AUTO 00000KT 10SM CLR 17/15 A3025 RMK AO2 =
2015-05-25 02:15 METAR KJYO 250615Z AUTO 00000KT 10SM CLR 18/15 A3025 RMK AO2 =
2015-05-25 01:55 METAR KJYO 250555Z AUTO 20003KT 10SM CLR 18/15 A3025 RMK AO2 =
2015-05-25 01:35 METAR KJYO 250535Z AUTO 17004KT 10SM CLR 19/15 A3026 RMK AO2 =
2015-05-25 01:15 METAR KJYO 250515Z AUTO 17006KT 10SM CLR 20/15 A3026 RMK AO2 =
2015-05-25 00:55 METAR KJYO 250455Z AUTO 22003KT 10SM CLR 20/15 A3026 RMK AO2 =
2015-05-25 00:35 METAR KJYO 250435Z AUTO 18005KT 10SM CLR 21/15 A3026 RMK AO2 =
2015-05-25 00:15 METAR KJYO 250415Z AUTO 19005KT 10SM CLR 20/15 A3026 RMK AO2 =
2015-05-24 23:55 METAR KJYO 250355Z AUTO 17006KT 10SM CLR 21/15 A3027 RMK AO2 =
2015-05-24 23:35 METAR KJYO 250335Z AUTO 19005KT 10SM CLR 21/15 A3027 RMK AO2 =
2015-05-24 23:15 METAR KJYO 250315Z AUTO 18006KT 10SM CLR 22/15 A3027 RMK AO2 =
2015-05-24 22:35 METAR KJYO 250235Z AUTO 19005KT 10SM CLR 22/15 A3027 RMK AO2 =
2015-05-24 22:15 METAR KJYO 250215Z AUTO 18007KT 10SM CLR 22/15 A3027 RMK AO2 =
2015-05-24 21:55 METAR KJYO 250155Z AUTO 18006KT 10SM CLR 23/15 A3027 RMK AO2 =
2015-05-24 21:35 METAR KJYO 250135Z AUTO 19006KT 10SM CLR 23/15 A3026 RMK AO2 =

Support USWX by starting your Amazon purchase here.